Sea Ranch Lakes, Florida
Current Conditions -  °F | °C
As of 4:53 AM on Sunday 26 Oct 2014 (Local Time) from KFXE Reporting Station
Clear Clear  
Wind Chill: 69°   Ceiling: Unl
Heat Index: 69°   Visibility: 10mi
Dew Point: 63°   Wind: 7mph
Humidity: 81%   Direction: 340°NNW
Pressure: 29.89"   Gusts: NA
Location:  26.1916°N, 80.1126°W
Report Text: KFXE 260853Z 34006KT 10SM CLR 21/17 A2989 RMK AO2 SLP125 T02060172 56012
Loading
Personal Weather Stations






























Interactive Weather Map
Tropical Storm Tracking
New forecast layout! Learn more

10-Day Weather Forecast

Advertisements
Track Severe Weather on mobile